sensor_id;sensor_type;location;lat;lon;timestamp;temperature;humidity
34279;DHT22;20538;51.528;9.942;2022-11-25T00:00:50;3.20;99.90
34279;DHT22;20538;51.528;9.942;2022-11-25T00:03:16;3.30;99.90
34279;DHT22;20538;51.528;9.942;2022-11-25T00:05:42;3.20;99.90
34279;DHT22;20538;51.528;9.942;2022-11-25T00:08:07;3.10;99.90
34279;DHT22;20538;51.528;9.942;2022-11-25T00:10:33;3.10;99.90
34279;DHT22;20538;51.528;9.942;2022-11-25T00:12:59;3.10;99.90
34279;DHT22;20538;51.528;9.942;2022-11-25T00:15:24;3.10;99.90
34279;DHT22;20538;51.528;9.942;2022-11-25T00:17:51;3.10;99.90
34279;DHT22;20538;51.528;9.942;2022-11-25T00:20:17;3.10;99.90
34279;DHT22;20538;51.528;9.942;2022-11-25T00:22:44;3.00;99.90
34279;DHT22;20538;51.528;9.942;2022-11-25T00:25:10;3.10;99.90
34279;DHT22;20538;51.528;9.942;2022-11-25T00:27:36;3.00;99.90
34279;DHT22;20538;51.528;9.942;2022-11-25T00:30:02;3.00;99.90
34279;DHT22;20538;51.528;9.942;2022-11-25T00:32:28;3.00;99.90
34279;DHT22;20538;51.528;9.942;2022-11-25T00:34:54;3.00;99.90
34279;DHT22;20538;51.528;9.942;2022-11-25T00:37:19;3.00;99.90
34279;DHT22;20538;51.528;9.942;2022-11-25T00:39:45;3.00;99.90
34279;DHT22;20538;51.528;9.942;2022-11-25T00:42:10;3.00;99.90
34279;DHT22;20538;51.528;9.942;2022-11-25T00:44:55;2.90;99.90
34279;DHT22;20538;51.528;9.942;2022-11-25T00:47:20;3.00;99.90
34279;DHT22;20538;51.528;9.942;2022-11-25T00:49:52;3.00;99.90
34279;DHT22;20538;51.528;9.942;2022-11-25T00:52:20;3.10;99.90
34279;DHT22;20538;51.528;9.942;2022-11-25T00:54:47;3.20;99.90
34279;DHT22;20538;51.528;9.942;2022-11-25T00:57:15;3.20;99.90
34279;DHT22;20538;51.528;9.942;2022-11-25T00:59:40;3.20;99.90
34279;DHT22;20538;51.528;9.942;2022-11-25T01:02:06;3.30;99.90
34279;DHT22;20538;51.528;9.942;2022-11-25T01:04:32;3.30;99.90
34279;DHT22;20538;51.528;9.942;2022-11-25T01:06:58;3.40;99.90
34279;DHT22;20538;51.528;9.942;2022-11-25T01:09:25;3.40;99.90
34279;DHT22;20538;51.528;9.942;2022-11-25T01:11:51;3.40;99.90
34279;DHT22;20538;51.528;9.942;2022-11-25T01:14:18;3.40;99.90
34279;DHT22;20538;51.528;9.942;2022-11-25T01:16:43;3.40;99.90
34279;DHT22;20538;51.528;9.942;2022-11-25T01:19:10;3.40;99.90
34279;DHT22;20538;51.528;9.942;2022-11-25T01:21:36;3.40;99.90
34279;DHT22;20538;51.528;9.942;2022-11-25T01:24:05;3.30;99.90
34279;DHT22;20538;51.528;9.942;2022-11-25T01:26:32;3.30;99.90
34279;DHT22;20538;51.528;9.942;2022-11-25T01:29:00;3.30;99.90
34279;DHT22;20538;51.528;9.942;2022-11-25T01:31:28;3.30;99.90
34279;DHT22;20538;51.528;9.942;2022-11-25T01:34:00;3.20;99.90
34279;DHT22;20538;51.528;9.942;2022-11-25T01:36:26;3.10;99.90
34279;DHT22;20538;51.528;9.942;2022-11-25T01:38:54;3.10;99.90
34279;DHT22;20538;51.528;9.942;2022-11-25T01:41:21;3.10;99.90
34279;DHT22;20538;51.528;9.942;2022-11-25T01:44:09;3.00;99.90
34279;DHT22;20538;51.528;9.942;2022-11-25T01:54:43;3.20;99.90
34279;DHT22;20538;51.528;9.942;2022-11-25T01:57:17;3.20;99.90
34279;DHT22;20538;51.528;9.942;2022-11-25T01:59:48;3.20;99.90
34279;DHT22;20538;51.528;9.942;2022-11-25T02:02:15;3.20;99.90
34279;DHT22;20538;51.528;9.942;2022-11-25T02:04:42;3.20;99.90
34279;DHT22;20538;51.528;9.942;2022-11-25T02:07:35;3.20;99.90
34279;DHT22;20538;51.528;9.942;2022-11-25T02:10:00;3.20;99.90
34279;DHT22;20538;51.528;9.942;2022-11-25T02:12:27;3.30;99.90
34279;DHT22;20538;51.528;9.942;2022-11-25T02:14:54;3.30;99.90
34279;DHT22;20538;51.528;9.942;2022-11-25T02:17:21;3.30;99.90
34279;DHT22;20538;51.528;9.942;2022-11-25T02:25:57;3.30;99.90
34279;DHT22;20538;51.528;9.942;2022-11-25T02:28:28;3.30;99.90
34279;DHT22;20538;51.528;9.942;2022-11-25T02:30:56;3.30;99.90
34279;DHT22;20538;51.528;9.942;2022-11-25T02:33:21;3.30;99.90
34279;DHT22;20538;51.528;9.942;2022-11-25T02:38:19;3.30;99.90
34279;DHT22;20538;51.528;9.942;2022-11-25T02:40:59;3.30;99.90
34279;DHT22;20538;51.528;9.942;2022-11-25T02:43:26;3.40;99.90
34279;DHT22;20538;51.528;9.942;2022-11-25T02:46:01;3.40;99.90
34279;DHT22;20538;51.528;9.942;2022-11-25T02:48:28;3.50;99.90
34279;DHT22;20538;51.528;9.942;2022-11-25T02:50:54;3.70;99.90
34279;DHT22;20538;51.528;9.942;2022-11-25T02:53:20;3.70;99.90
34279;DHT22;20538;51.528;9.942;2022-11-25T02:55:46;3.80;99.90
34279;DHT22;20538;51.528;9.942;2022-11-25T02:58:13;3.90;99.90
34279;DHT22;20538;51.528;9.942;2022-11-25T03:00:39;3.90;99.90
34279;DHT22;20538;51.528;9.942;2022-11-25T03:03:05;3.90;99.90
34279;DHT22;20538;51.528;9.942;2022-11-25T03:05:30;4.00;99.90
34279;DHT22;20538;51.528;9.942;2022-11-25T03:07:56;4.00;99.90
34279;DHT22;20538;51.528;9.942;2022-11-25T03:10:22;4.00;99.90
34279;DHT22;20538;51.528;9.942;2022-11-25T03:12:48;4.10;99.90
34279;DHT22;20538;51.528;9.942;2022-11-25T03:15:13;4.10;99.90
34279;DHT22;20538;51.528;9.942;2022-11-25T03:17:39;4.00;99.90
34279;DHT22;20538;51.528;9.942;2022-11-25T03:20:07;4.00;99.90
34279;DHT22;20538;51.528;9.942;2022-11-25T03:22:33;4.10;99.90
34279;DHT22;20538;51.528;9.942;2022-11-25T03:24:59;4.10;99.90
34279;DHT22;20538;51.528;9.942;2022-11-25T03:27:24;4.10;99.90
34279;DHT22;20538;51.528;9.942;2022-11-25T03:29:50;4.20;99.90
34279;DHT22;20538;51.528;9.942;2022-11-25T03:32:16;4.10;99.90
34279;DHT22;20538;51.528;9.942;2022-11-25T03:34:42;4.10;99.90
34279;DHT22;20538;51.528;9.942;2022-11-25T03:37:07;4.10;99.90
34279;DHT22;20538;51.528;9.942;2022-11-25T03:39:33;4.00;99.90
34279;DHT22;20538;51.528;9.942;2022-11-25T03:41:59;4.00;99.90
34279;DHT22;20538;51.528;9.942;2022-11-25T03:44:25;4.00;99.90
34279;DHT22;20538;51.528;9.942;2022-11-25T03:46:51;4.00;99.90
34279;DHT22;20538;51.528;9.942;2022-11-25T03:49:17;4.00;99.90
34279;DHT22;20538;51.528;9.942;2022-11-25T03:51:42;4.00;99.90
34279;DHT22;20538;51.528;9.942;2022-11-25T03:54:08;3.90;99.90
34279;DHT22;20538;51.528;9.942;2022-11-25T03:56:34;3.90;99.90
34279;DHT22;20538;51.528;9.942;2022-11-25T03:58:59;3.80;99.90
34279;DHT22;20538;51.528;9.942;2022-11-25T04:01:25;3.80;99.90
34279;DHT22;20538;51.528;9.942;2022-11-25T04:03:51;3.80;99.90
34279;DHT22;20538;51.528;9.942;2022-11-25T04:06:16;3.70;99.90
34279;DHT22;20538;51.528;9.942;2022-11-25T04:08:44;3.70;99.90
34279;DHT22;20538;51.528;9.942;2022-11-25T04:11:10;3.70;99.90
34279;DHT22;20538;51.528;9.942;2022-11-25T04:13:36;3.70;99.90
34279;DHT22;20538;51.528;9.942;2022-11-25T04:16:02;3.70;99.90
34279;DHT22;20538;51.528;9.942;2022-11-25T04:18:28;3.70;99.90
34279;DHT22;20538;51.528;9.942;2022-11-25T04:20:53;3.70;99.90
34279;DHT22;20538;51.528;9.942;2022-11-25T04:23:19;3.70;99.90
34279;DHT22;20538;51.528;9.942;2022-11-25T04:25:47;3.60;99.90
34279;DHT22;20538;51.528;9.942;2022-11-25T04:28:13;3.60;99.90
34279;DHT22;20538;51.528;9.942;2022-11-25T04:30:39;3.60;99.90
34279;DHT22;20538;51.528;9.942;2022-11-25T04:33:04;3.60;99.90
34279;DHT22;20538;51.528;9.942;2022-11-25T04:35:31;3.60;99.90
34279;DHT22;20538;51.528;9.942;2022-11-25T04:37:57;3.50;99.90
34279;DHT22;20538;51.528;9.942;2022-11-25T04:40:22;3.40;99.90
34279;DHT22;20538;51.528;9.942;2022-11-25T04:42:48;3.30;99.90
34279;DHT22;20538;51.528;9.942;2022-11-25T04:45:16;3.40;99.90
34279;DHT22;20538;51.528;9.942;2022-11-25T04:47:44;3.40;99.90
34279;DHT22;20538;51.528;9.942;2022-11-25T04:50:16;3.40;99.90
34279;DHT22;20538;51.528;9.942;2022-11-25T04:52:43;3.30;99.90
34279;DHT22;20538;51.528;9.942;2022-11-25T04:55:09;3.30;99.90
34279;DHT22;20538;51.528;9.942;2022-11-25T04:57:35;3.30;99.90
34279;DHT22;20538;51.528;9.942;2022-11-25T05:00:01;3.30;99.90
34279;DHT22;20538;51.528;9.942;2022-11-25T05:02:27;3.30;99.90
34279;DHT22;20538;51.528;9.942;2022-11-25T05:04:55;3.20;99.90
34279;DHT22;20538;51.528;9.942;2022-11-25T05:07:22;3.20;99.90
34279;DHT22;20538;51.528;9.942;2022-11-25T05:09:48;3.20;99.90
34279;DHT22;20538;51.528;9.942;2022-11-25T05:12:23;3.20;99.90
34279;DHT22;20538;51.528;9.942;2022-11-25T05:14:49;3.20;99.90
34279;DHT22;20538;51.528;9.942;2022-11-25T05:17:20;3.10;99.90
34279;DHT22;20538;51.528;9.942;2022-11-25T05:19:46;3.10;99.90
34279;DHT22;20538;51.528;9.942;2022-11-25T05:22:15;3.10;99.90
34279;DHT22;20538;51.528;9.942;2022-11-25T05:24:41;3.10;99.90
34279;DHT22;20538;51.528;9.942;2022-11-25T05:27:07;3.00;99.90
34279;DHT22;20538;51.528;9.942;2022-11-25T05:29:33;3.00;99.90
34279;DHT22;20538;51.528;9.942;2022-11-25T05:31:58;3.00;99.90
34279;DHT22;20538;51.528;9.942;2022-11-25T05:34:24;3.10;99.90
34279;DHT22;20538;51.528;9.942;2022-11-25T05:36:50;3.20;99.90
34279;DHT22;20538;51.528;9.942;2022-11-25T05:39:16;3.30;99.90
34279;DHT22;20538;51.528;9.942;2022-11-25T05:41:42;3.30;99.90
34279;DHT22;20538;51.528;9.942;2022-11-25T05:44:08;3.40;99.90
34279;DHT22;20538;51.528;9.942;2022-11-25T05:46:33;3.40;99.90
34279;DHT22;20538;51.528;9.942;2022-11-25T05:48:59;3.50;99.90
34279;DHT22;20538;51.528;9.942;2022-11-25T05:51:25;3.50;99.90
34279;DHT22;20538;51.528;9.942;2022-11-25T05:53:52;3.60;99.90
34279;DHT22;20538;51.528;9.942;2022-11-25T05:56:18;3.60;99.90
34279;DHT22;20538;51.528;9.942;2022-11-25T05:58:44;3.70;99.90
34279;DHT22;20538;51.528;9.942;2022-11-25T06:01:11;3.60;99.90
34279;DHT22;20538;51.528;9.942;2022-11-25T06:03:37;3.70;99.90
34279;DHT22;20538;51.528;9.942;2022-11-25T06:06:04;3.70;99.90
34279;DHT22;20538;51.528;9.942;2022-11-25T06:08:30;3.70;99.90
34279;DHT22;20538;51.528;9.942;2022-11-25T06:10:56;3.70;99.90
34279;DHT22;20538;51.528;9.942;2022-11-25T06:13:22;3.70;99.90
34279;DHT22;20538;51.528;9.942;2022-11-25T06:15:47;3.90;99.90
34279;DHT22;20538;51.528;9.942;2022-11-25T06:18:15;3.90;99.90
34279;DHT22;20538;51.528;9.942;2022-11-25T06:20:41;4.10;99.90
34279;DHT22;20538;51.528;9.942;2022-11-25T06:23:08;4.20;99.90
34279;DHT22;20538;51.528;9.942;2022-11-25T06:25:34;4.40;99.90
34279;DHT22;20538;51.528;9.942;2022-11-25T06:28:01;4.50;99.90
34279;DHT22;20538;51.528;9.942;2022-11-25T06:30:38;4.60;99.90
34279;DHT22;20538;51.528;9.942;2022-11-25T06:33:03;4.70;99.90
34279;DHT22;20538;51.528;9.942;2022-11-25T06:35:29;4.70;99.90
34279;DHT22;20538;51.528;9.942;2022-11-25T06:37:55;4.80;99.90
34279;DHT22;20538;51.528;9.942;2022-11-25T06:40:22;4.90;99.90
34279;DHT22;20538;51.528;9.942;2022-11-25T06:42:47;4.90;99.90
34279;DHT22;20538;51.528;9.942;2022-11-25T06:45:13;5.00;99.90
34279;DHT22;20538;51.528;9.942;2022-11-25T06:47:39;5.00;99.90
34279;DHT22;20538;51.528;9.942;2022-11-25T06:50:05;5.10;99.90
34279;DHT22;20538;51.528;9.942;2022-11-25T06:52:31;5.10;99.90
34279;DHT22;20538;51.528;9.942;2022-11-25T06:54:56;5.10;99.90
34279;DHT22;20538;51.528;9.942;2022-11-25T06:57:22;5.10;99.90
34279;DHT22;20538;51.528;9.942;2022-11-25T06:59:48;5.10;99.90
34279;DHT22;20538;51.528;9.942;2022-11-25T07:02:14;5.10;99.90
34279;DHT22;20538;51.528;9.942;2022-11-25T07:04:39;5.10;99.90
34279;DHT22;20538;51.528;9.942;2022-11-25T07:07:06;5.10;99.90
34279;DHT22;20538;51.528;9.942;2022-11-25T07:09:34;5.10;99.90
34279;DHT22;20538;51.528;9.942;2022-11-25T07:12:00;5.10;99.90
34279;DHT22;20538;51.528;9.942;2022-11-25T07:14:25;5.20;99.90
34279;DHT22;20538;51.528;9.942;2022-11-25T07:16:52;5.40;99.90
34279;DHT22;20538;51.528;9.942;2022-11-25T07:19:18;5.40;99.90
34279;DHT22;20538;51.528;9.942;2022-11-25T07:21:45;5.50;99.90
34279;DHT22;20538;51.528;9.942;2022-11-25T07:24:13;5.70;99.90
34279;DHT22;20538;51.528;9.942;2022-11-25T07:26:40;5.70;99.90
34279;DHT22;20538;51.528;9.942;2022-11-25T07:29:10;5.70;99.90
34279;DHT22;20538;51.528;9.942;2022-11-25T07:31:38;5.70;99.90
34279;DHT22;20538;51.528;9.942;2022-11-25T07:36:31;5.80;99.90
34279;DHT22;20538;51.528;9.942;2022-11-25T07:39:00;5.80;99.90
34279;DHT22;20538;51.528;9.942;2022-11-25T07:41:27;5.90;99.90
34279;DHT22;20538;51.528;9.942;2022-11-25T07:44:00;5.90;99.90
34279;DHT22;20538;51.528;9.942;2022-11-25T07:46:32;5.90;99.90
34279;DHT22;20538;51.528;9.942;2022-11-25T07:49:04;5.90;99.90
34279;DHT22;20538;51.528;9.942;2022-11-25T07:51:32;5.90;99.90
34279;DHT22;20538;51.528;9.942;2022-11-25T07:54:01;5.90;99.90
34279;DHT22;20538;51.528;9.942;2022-11-25T07:56:27;5.90;99.90
34279;DHT22;20538;51.528;9.942;2022-11-25T07:58:54;5.80;99.90
34279;DHT22;20538;51.528;9.942;2022-11-25T08:01:19;5.90;99.90
34279;DHT22;20538;51.528;9.942;2022-11-25T08:03:47;5.90;99.90
34279;DHT22;20538;51.528;9.942;2022-11-25T08:06:16;5.90;99.90
34279;DHT22;20538;51.528;9.942;2022-11-25T08:08:42;6.00;99.90
34279;DHT22;20538;51.528;9.942;2022-11-25T08:11:11;6.00;99.90
34279;DHT22;20538;51.528;9.942;2022-11-25T08:13:37;6.10;99.90
34279;DHT22;20538;51.528;9.942;2022-11-25T08:16:04;6.10;99.90
34279;DHT22;20538;51.528;9.942;2022-11-25T08:18:30;6.10;99.90
34279;DHT22;20538;51.528;9.942;2022-11-25T08:21:04;6.20;99.90
34279;DHT22;20538;51.528;9.942;2022-11-25T08:23:31;6.30;99.90
34279;DHT22;20538;51.528;9.942;2022-11-25T08:26:01;6.40;99.90
34279;DHT22;20538;51.528;9.942;2022-11-25T08:28:27;6.40;99.90
34279;DHT22;20538;51.528;9.942;2022-11-25T08:31:09;6.50;99.90
34279;DHT22;20538;51.528;9.942;2022-11-25T08:33:35;6.60;99.90
34279;DHT22;20538;51.528;9.942;2022-11-25T08:36:01;6.70;99.90
34279;DHT22;20538;51.528;9.942;2022-11-25T08:38:28;6.70;99.90
34279;DHT22;20538;51.528;9.942;2022-11-25T08:40:55;6.80;99.90
34279;DHT22;20538;51.528;9.942;2022-11-25T08:43:21;6.80;99.90
34279;DHT22;20538;51.528;9.942;2022-11-25T08:45:50;6.90;99.90
34279;DHT22;20538;51.528;9.942;2022-11-25T08:48:17;7.00;99.90
34279;DHT22;20538;51.528;9.942;2022-11-25T08:50:52;7.00;99.90
34279;DHT22;20538;51.528;9.942;2022-11-25T08:53:19;7.10;99.90
34279;DHT22;20538;51.528;9.942;2022-11-25T08:55:45;7.10;99.90
34279;DHT22;20538;51.528;9.942;2022-11-25T08:58:10;7.20;99.90
34279;DHT22;20538;51.528;9.942;2022-11-25T09:00:39;7.20;99.90
34279;DHT22;20538;51.528;9.942;2022-11-25T09:03:06;7.30;99.90
34279;DHT22;20538;51.528;9.942;2022-11-25T09:05:32;7.30;99.90
34279;DHT22;20538;51.528;9.942;2022-11-25T09:08:02;7.40;99.90
34279;DHT22;20538;51.528;9.942;2022-11-25T09:10:29;7.40;99.90
34279;DHT22;20538;51.528;9.942;2022-11-25T09:12:54;7.40;99.90
34279;DHT22;20538;51.528;9.942;2022-11-25T09:15:20;7.50;99.90
34279;DHT22;20538;51.528;9.942;2022-11-25T09:17:46;7.50;99.90
34279;DHT22;20538;51.528;9.942;2022-11-25T09:20:12;7.50;99.90
34279;DHT22;20538;51.528;9.942;2022-11-25T09:22:37;7.50;99.90
34279;DHT22;20538;51.528;9.942;2022-11-25T09:25:03;7.50;99.90
34279;DHT22;20538;51.528;9.942;2022-11-25T09:27:30;7.50;99.90
34279;DHT22;20538;51.528;9.942;2022-11-25T09:29:56;7.60;99.90
34279;DHT22;20538;51.528;9.942;2022-11-25T09:32:22;7.60;99.90
34279;DHT22;20538;51.528;9.942;2022-11-25T09:34:50;7.60;99.90
34279;DHT22;20538;51.528;9.942;2022-11-25T09:37:15;7.70;99.90
34279;DHT22;20538;51.528;9.942;2022-11-25T09:39:41;7.60;99.90
34279;DHT22;20538;51.528;9.942;2022-11-25T09:45:45;7.70;99.90
34279;DHT22;20538;51.528;9.942;2022-11-25T09:53:51;7.80;99.90
34279;DHT22;20538;51.528;9.942;2022-11-25T09:56:40;7.70;99.90
34279;DHT22;20538;51.528;9.942;2022-11-25T09:59:19;7.70;99.90
34279;DHT22;20538;51.528;9.942;2022-11-25T10:02:01;7.70;99.90
34279;DHT22;20538;51.528;9.942;2022-11-25T10:04:41;7.70;99.90
34279;DHT22;20538;51.528;9.942;2022-11-25T10:07:21;7.80;99.90
34279;DHT22;20538;51.528;9.942;2022-11-25T10:09:53;7.80;99.90
34279;DHT22;20538;51.528;9.942;2022-11-25T10:12:29;7.80;99.90
34279;DHT22;20538;51.528;9.942;2022-11-25T10:15:20;7.80;99.90
34279;DHT22;20538;51.528;9.942;2022-11-25T10:17:50;7.80;99.90
34279;DHT22;20538;51.528;9.942;2022-11-25T10:20:28;7.80;99.90
34279;DHT22;20538;51.528;9.942;2022-11-25T10:23:09;7.80;99.90
34279;DHT22;20538;51.528;9.942;2022-11-25T10:25:49;7.90;99.90
34279;DHT22;20538;51.528;9.942;2022-11-25T10:28:24;7.80;99.90
34279;DHT22;20538;51.528;9.942;2022-11-25T10:33:32;7.90;99.90
34279;DHT22;20538;51.528;9.942;2022-11-25T10:36:20;7.90;99.90
34279;DHT22;20538;51.528;9.942;2022-11-25T10:44:27;7.80;99.90
34279;DHT22;20538;51.528;9.942;2022-11-25T10:53:09;7.90;99.90
34279;DHT22;20538;51.528;9.942;2022-11-25T10:55:36;7.80;99.90
34279;DHT22;20538;51.528;9.942;2022-11-25T10:58:25;7.80;99.90
34279;DHT22;20538;51.528;9.942;2022-11-25T11:03:30;7.80;99.90
34279;DHT22;20538;51.528;9.942;2022-11-25T11:05:55;7.80;99.90
34279;DHT22;20538;51.528;9.942;2022-11-25T11:08:22;7.80;99.90
34279;DHT22;20538;51.528;9.942;2022-11-25T11:13:36;7.80;99.90
34279;DHT22;20538;51.528;9.942;2022-11-25T11:16:03;7.80;99.90
34279;DHT22;20538;51.528;9.942;2022-11-25T11:18:44;7.80;99.90
34279;DHT22;20538;51.528;9.942;2022-11-25T11:21:34;7.80;99.90
34279;DHT22;20538;51.528;9.942;2022-11-25T11:24:24;7.90;99.90
34279;DHT22;20538;51.528;9.942;2022-11-25T11:27:02;7.90;99.90
34279;DHT22;20538;51.528;9.942;2022-11-25T11:29:28;7.90;99.90
34279;DHT22;20538;51.528;9.942;2022-11-25T11:32:04;7.90;99.90
34279;DHT22;20538;51.528;9.942;2022-11-25T11:34:53;7.90;99.90
34279;DHT22;20538;51.528;9.942;2022-11-25T11:37:45;7.90;99.90
34279;DHT22;20538;51.528;9.942;2022-11-25T11:43:06;7.90;99.90
34279;DHT22;20538;51.528;9.942;2022-11-25T11:53:49;7.90;99.90
34279;DHT22;20538;51.528;9.942;2022-11-25T11:56:43;7.90;99.90
34279;DHT22;20538;51.528;9.942;2022-11-25T12:02:20;8.00;99.90
34279;DHT22;20538;51.528;9.942;2022-11-25T12:10:25;7.90;99.90
34279;DHT22;20538;51.528;9.942;2022-11-25T12:13:19;7.90;99.90
34279;DHT22;20538;51.528;9.942;2022-11-25T12:16:12;7.90;99.90
34279;DHT22;20538;51.528;9.942;2022-11-25T12:22:02;8.00;99.90
34279;DHT22;20538;51.528;9.942;2022-11-25T12:24:57;8.10;99.90
34279;DHT22;20538;51.528;9.942;2022-11-25T12:27:30;8.10;99.90
34279;DHT22;20538;51.528;9.942;2022-11-25T12:41:00;8.10;99.90
34279;DHT22;20538;51.528;9.942;2022-11-25T12:43:48;8.00;99.90
34279;DHT22;20538;51.528;9.942;2022-11-25T12:46:24;8.00;99.90
34279;DHT22;20538;51.528;9.942;2022-11-25T12:48:51;7.90;99.90
34279;DHT22;20538;51.528;9.942;2022-11-25T12:54:15;7.90;99.90
34279;DHT22;20538;51.528;9.942;2022-11-25T13:00:27;8.00;99.90
34279;DHT22;20538;51.528;9.942;2022-11-25T13:12:09;8.40;99.90
34279;DHT22;20538;51.528;9.942;2022-11-25T13:17:39;8.50;99.90
34279;DHT22;20538;51.528;9.942;2022-11-25T13:20:32;8.50;99.90
34279;DHT22;20538;51.528;9.942;2022-11-25T13:25:29;8.40;99.90
34279;DHT22;20538;51.528;9.942;2022-11-25T13:27:57;8.40;99.90
34279;DHT22;20538;51.528;9.942;2022-11-25T13:35:53;8.40;99.90
34279;DHT22;20538;51.528;9.942;2022-11-25T13:38:55;8.50;99.90
34279;DHT22;20538;51.528;9.942;2022-11-25T13:41:45;8.50;99.90
34279;DHT22;20538;51.528;9.942;2022-11-25T13:44:13;8.40;99.90
34279;DHT22;20538;51.528;9.942;2022-11-25T13:46:51;8.40;99.90
34279;DHT22;20538;51.528;9.942;2022-11-25T13:52:27;8.40;99.90
34279;DHT22;20538;51.528;9.942;2022-11-25T13:54:52;8.30;99.90
34279;DHT22;20538;51.528;9.942;2022-11-25T13:57:33;8.30;99.90
34279;DHT22;20538;51.528;9.942;2022-11-25T14:00:08;8.30;99.90
34279;DHT22;20538;51.528;9.942;2022-11-25T14:02:52;8.40;99.90
34279;DHT22;20538;51.528;9.942;2022-11-25T14:08:36;8.50;99.90
34279;DHT22;20538;51.528;9.942;2022-11-25T14:13:54;8.60;99.90
34279;DHT22;20538;51.528;9.942;2022-11-25T14:25:19;8.40;99.90
34279;DHT22;20538;51.528;9.942;2022-11-25T14:27:49;8.30;99.90
34279;DHT22;20538;51.528;9.942;2022-11-25T14:30:17;8.30;99.90
34279;DHT22;20538;51.528;9.942;2022-11-25T14:32:56;8.30;99.90
34279;DHT22;20538;51.528;9.942;2022-11-25T14:38:19;8.30;99.90
34279;DHT22;20538;51.528;9.942;2022-11-25T14:41:07;8.30;99.90
34279;DHT22;20538;51.528;9.942;2022-11-25T14:43:39;8.20;99.90
34279;DHT22;20538;51.528;9.942;2022-11-25T14:46:19;8.10;99.90
34279;DHT22;20538;51.528;9.942;2022-11-25T14:48:56;8.10;99.90
34279;DHT22;20538;51.528;9.942;2022-11-25T14:51:24;8.00;99.90
34279;DHT22;20538;51.528;9.942;2022-11-25T14:53:50;7.90;99.90
34279;DHT22;20538;51.528;9.942;2022-11-25T14:56:24;7.80;99.90
34279;DHT22;20538;51.528;9.942;2022-11-25T14:58:52;7.80;99.90
34279;DHT22;20538;51.528;9.942;2022-11-25T15:01:29;7.70;99.90
34279;DHT22;20538;51.528;9.942;2022-11-25T15:04:18;7.70;99.90
34279;DHT22;20538;51.528;9.942;2022-11-25T15:06:54;7.60;99.90
34279;DHT22;20538;51.528;9.942;2022-11-25T15:09:35;7.50;99.90
34279;DHT22;20538;51.528;9.942;2022-11-25T15:12:06;7.40;99.90
34279;DHT22;20538;51.528;9.942;2022-11-25T15:14:40;7.30;99.90
34279;DHT22;20538;51.528;9.942;2022-11-25T15:17:21;7.20;99.90
34279;DHT22;20538;51.528;9.942;2022-11-25T15:19:48;7.20;99.90
34279;DHT22;20538;51.528;9.942;2022-11-25T15:22:18;7.20;99.90
34279;DHT22;20538;51.528;9.942;2022-11-25T15:24:46;7.10;99.90
34279;DHT22;20538;51.528;9.942;2022-11-25T15:27:26;7.10;99.90
34279;DHT22;20538;51.528;9.942;2022-11-25T15:29:53;7.10;99.90
34279;DHT22;20538;51.528;9.942;2022-11-25T15:32:37;7.10;99.90
34279;DHT22;20538;51.528;9.942;2022-11-25T15:35:04;7.00;99.90
34279;DHT22;20538;51.528;9.942;2022-11-25T15:37:31;6.90;99.90
34279;DHT22;20538;51.528;9.942;2022-11-25T15:40:29;6.90;99.90
34279;DHT22;20538;51.528;9.942;2022-11-25T15:42:57;6.80;99.90
34279;DHT22;20538;51.528;9.942;2022-11-25T15:45:24;6.80;99.90
34279;DHT22;20538;51.528;9.942;2022-11-25T15:47:51;6.70;99.90
34279;DHT22;20538;51.528;9.942;2022-11-25T15:50:21;6.70;99.90
34279;DHT22;20538;51.528;9.942;2022-11-25T15:52:52;6.70;99.90
34279;DHT22;20538;51.528;9.942;2022-11-25T15:55:33;6.70;99.90
34279;DHT22;20538;51.528;9.942;2022-11-25T15:58:06;6.70;99.90
34279;DHT22;20538;51.528;9.942;2022-11-25T16:00:35;6.70;99.90
34279;DHT22;20538;51.528;9.942;2022-11-25T16:03:01;6.70;99.90
34279;DHT22;20538;51.528;9.942;2022-11-25T16:05:36;6.80;99.90
34279;DHT22;20538;51.528;9.942;2022-11-25T16:10:51;6.90;99.90
34279;DHT22;20538;51.528;9.942;2022-11-25T16:13:26;7.00;99.90
34279;DHT22;20538;51.528;9.942;2022-11-25T16:15:59;7.00;99.90
34279;DHT22;20538;51.528;9.942;2022-11-25T16:29:36;7.10;99.90
34279;DHT22;20538;51.528;9.942;2022-11-25T16:32:17;7.10;99.90
34279;DHT22;20538;51.528;9.942;2022-11-25T16:34:43;7.00;99.90
34279;DHT22;20538;51.528;9.942;2022-11-25T16:37:08;6.90;99.90
34279;DHT22;20538;51.528;9.942;2022-11-25T16:39:35;6.80;99.90
34279;DHT22;20538;51.528;9.942;2022-11-25T16:42:02;6.70;99.90
34279;DHT22;20538;51.528;9.942;2022-11-25T16:44:32;6.60;99.90
34279;DHT22;20538;51.528;9.942;2022-11-25T16:46:59;6.50;99.90
34279;DHT22;20538;51.528;9.942;2022-11-25T16:49:25;6.50;99.90
34279;DHT22;20538;51.528;9.942;2022-11-25T16:51:51;6.50;99.90
34279;DHT22;20538;51.528;9.942;2022-11-25T16:54:21;6.40;99.90
34279;DHT22;20538;51.528;9.942;2022-11-25T16:56:49;6.30;99.90
34279;DHT22;20538;51.528;9.942;2022-11-25T17:01:56;6.20;99.90
34279;DHT22;20538;51.528;9.942;2022-11-25T17:04:22;6.10;99.90
34279;DHT22;20538;51.528;9.942;2022-11-25T17:06:48;6.10;99.90
34279;DHT22;20538;51.528;9.942;2022-11-25T17:09:13;6.10;99.90
34279;DHT22;20538;51.528;9.942;2022-11-25T17:11:44;6.10;99.90
34279;DHT22;20538;51.528;9.942;2022-11-25T17:14:33;6.10;99.90
34279;DHT22;20538;51.528;9.942;2022-11-25T17:17:01;6.10;99.90
34279;DHT22;20538;51.528;9.942;2022-11-25T17:19:27;6.10;99.90
34279;DHT22;20538;51.528;9.942;2022-11-25T17:21:53;6.10;99.90
34279;DHT22;20538;51.528;9.942;2022-11-25T17:24:21;6.20;99.90
34279;DHT22;20538;51.528;9.942;2022-11-25T17:26:55;6.30;99.90
34279;DHT22;20538;51.528;9.942;2022-11-25T17:29:36;6.40;99.90
34279;DHT22;20538;51.528;9.942;2022-11-25T17:32:03;6.40;99.90
34279;DHT22;20538;51.528;9.942;2022-11-25T17:34:29;6.40;99.90
34279;DHT22;20538;51.528;9.942;2022-11-25T17:36:55;6.30;99.90
34279;DHT22;20538;51.528;9.942;2022-11-25T17:39:21;6.30;99.90
34279;DHT22;20538;51.528;9.942;2022-11-25T17:41:49;6.30;99.90
34279;DHT22;20538;51.528;9.942;2022-11-25T17:46:48;6.40;99.90
34279;DHT22;20538;51.528;9.942;2022-11-25T17:49:14;6.40;99.90
34279;DHT22;20538;51.528;9.942;2022-11-25T17:51:41;6.50;99.90
34279;DHT22;20538;51.528;9.942;2022-11-25T17:54:07;6.50;99.90
34279;DHT22;20538;51.528;9.942;2022-11-25T17:56:33;6.50;99.90
34279;DHT22;20538;51.528;9.942;2022-11-25T17:59:02;6.50;99.90
34279;DHT22;20538;51.528;9.942;2022-11-25T18:01:29;6.60;99.90
34279;DHT22;20538;51.528;9.942;2022-11-25T18:03:54;6.60;99.90
34279;DHT22;20538;51.528;9.942;2022-11-25T18:06:20;6.70;99.90
34279;DHT22;20538;51.528;9.942;2022-11-25T18:08:47;6.70;99.90
34279;DHT22;20538;51.528;9.942;2022-11-25T18:11:16;6.70;99.90
34279;DHT22;20538;51.528;9.942;2022-11-25T18:13:44;6.70;99.90
34279;DHT22;20538;51.528;9.942;2022-11-25T18:16:11;6.80;99.90
34279;DHT22;20538;51.528;9.942;2022-11-25T18:18:37;6.80;99.90
34279;DHT22;20538;51.528;9.942;2022-11-25T18:21:02;6.90;99.90
34279;DHT22;20538;51.528;9.942;2022-11-25T18:23:29;6.90;99.90
34279;DHT22;20538;51.528;9.942;2022-11-25T18:25:56;7.00;99.90
34279;DHT22;20538;51.528;9.942;2022-11-25T18:28:24;7.00;99.90